LND076 SBGR-UWWW
Flight info
| Callsign | LND076 |
|---|---|
| Flight time | N/A |
| Altitude | 33000 |
| Route | VUMEV UZ14 AMBET UN857 GUNET N857 LZR N871 KORAL UG5 SONSO UN871 OSDAM UM985 BARPA M985 PIMOS M445 SOPET M985 LUMAS UM976 SOSUR UM154 DIVKO UM984 PADKO UL127 STP Y15 RAPED P856 DIVUL M622 PIGOS UM733 OKTET UY31 GIPNO UN871 OMASI N871 DITON T163 ZUE T125 ROMIR N851 TEDGO DCT TIKNI N746 ESOBU N858 SUBIX L980 KELOD L979 ASKIL L736 LODKU M56 ABAGI T794 RUBEK |
| Aircraft | B748/H-VGDW/C |
Departure
| Time | N/A |
|---|---|
| Airport | São Paulo/Guarulhos–Governor André Franco Montoro International Airport (SBGR) |
Arrival
| Time | 2025-10-04 07:09 |
|---|---|
| Airport | Kurumoch International Airport (UWWW) |
| Time | Latitude | Longitude | Altitude | Speed | Heading |
|---|---|---|---|---|---|
| 2025-10-04 05:48 | 54.68689 | 33.50963 | 37055 ft | 487 kts | 84° |
| 2025-10-04 05:48 | 54.69445 | 33.62607 | 37049 ft | 488 kts | 84° |
| 2025-10-04 05:50 | 54.71374 | 34.03550 | 37069 ft | 491 kts | 88° |
| 2025-10-04 05:52 | 54.72561 | 34.55627 | 37244 ft | 473 kts | 87° |
| 2025-10-04 05:54 | 54.73312 | 34.95170 | 37333 ft | 468 kts | 86° |
| 2025-10-04 05:56 | 54.73808 | 35.39953 | 37342 ft | 466 kts | 88° |
| 2025-10-04 05:59 | 54.73751 | 35.96520 | 37345 ft | 475 kts | 88° |
| 2025-10-04 06:00 | 54.73555 | 36.36671 | 37343 ft | 481 kts | 88° |
| 2025-10-04 06:03 | 54.73120 | 36.89326 | 37345 ft | 493 kts | 87° |
| 2025-10-04 06:04 | 54.72635 | 37.31099 | 37341 ft | 502 kts | 90° |
| 2025-10-04 06:07 | 54.60287 | 37.81919 | 37430 ft | 515 kts | 115° |
| 2025-10-04 06:08 | 54.49605 | 38.21108 | 37448 ft | 517 kts | 105° |
| 2025-10-04 06:11 | 54.42477 | 38.75399 | 37436 ft | 517 kts | 104° |
| 2025-10-04 06:12 | 54.35436 | 39.16702 | 37442 ft | 514 kts | 115° |
| 2025-10-04 06:14 | 54.25902 | 39.56031 | 37437 ft | 508 kts | 116° |
| 2025-10-04 06:16 | 54.13532 | 40.05930 | 37435 ft | 509 kts | 117° |
| 2025-10-04 06:18 | 54.04962 | 40.52076 | 37438 ft | 513 kts | 110° |
| 2025-10-04 06:20 | 53.96709 | 40.98425 | 37435 ft | 513 kts | 110° |
| 2025-10-04 06:22 | 53.89914 | 41.39247 | 37439 ft | 515 kts | 109° |
| 2025-10-04 06:24 | 53.81038 | 41.91732 | 37517 ft | 518 kts | 109° |
| 2025-10-04 06:26 | 53.73918 | 42.32654 | 37432 ft | 518 kts | 110° |
| 2025-10-04 06:28 | 53.68607 | 42.86108 | 37442 ft | 525 kts | 86° |
| 2025-10-04 06:30 | 53.70625 | 43.28992 | 37438 ft | 525 kts | 87° |
| 2025-10-04 06:32 | 53.72747 | 43.78127 | 37439 ft | 525 kts | 87° |
| 2025-10-04 06:35 | 53.75114 | 44.39667 | 37436 ft | 527 kts | 87° |
| 2025-10-04 06:36 | 53.75972 | 44.82775 | 37615 ft | 526 kts | 89° |
| 2025-10-04 06:39 | 53.76823 | 45.38257 | 37610 ft | 524 kts | 89° |
| 2025-10-04 06:40 | 53.77346 | 45.81455 | 37612 ft | 526 kts | 90° |
| 2025-10-04 06:43 | 53.77780 | 46.34093 | 37621 ft | 539 kts | 90° |
| 2025-10-04 06:44 | 53.77966 | 46.78156 | 37617 ft | 528 kts | 90° |
| 2025-10-04 06:47 | 53.79031 | 47.34438 | 35672 ft | 547 kts | 82° |
| 2025-10-04 06:48 | 53.82038 | 47.78857 | 30074 ft | 537 kts | 83° |
| 2025-10-04 06:50 | 53.80839 | 48.21590 | 24479 ft | 506 kts | 97° |
| 2025-10-04 06:51 | 53.79741 | 48.39064 | 22162 ft | 489 kts | 97° |
| 2025-10-04 06:51 | 53.79038 | 48.50271 | 20675 ft | 478 kts | 97° |
| 2025-10-04 06:52 | 53.78322 | 48.61342 | 19183 ft | 466 kts | 98° |
| 2025-10-04 06:52 | 53.77624 | 48.72088 | 17733 ft | 455 kts | 98° |
| 2025-10-04 06:53 | 53.76927 | 48.82613 | 16277 ft | 445 kts | 98° |
| 2025-10-04 06:53 | 53.76117 | 48.92864 | 14842 ft | 434 kts | 99° |
| 2025-10-04 06:54 | 53.75344 | 49.02731 | 13421 ft | 423 kts | 99° |
| 2025-10-04 06:54 | 53.74913 | 49.07743 | 12501 ft | 425 kts | 100° |
| 2025-10-04 06:55 | 53.73319 | 49.26610 | 10350 ft | 381 kts | 100° |
| 2025-10-04 06:55 | 53.72945 | 49.30952 | 9969 ft | 367 kts | 100° |
| 2025-10-04 06:56 | 53.72272 | 49.38824 | 9679 ft | 310 kts | 101° |
| 2025-10-04 06:56 | 53.71690 | 49.45505 | 9144 ft | 270 kts | 101° |
| 2025-10-04 06:57 | 53.71174 | 49.51413 | 8701 ft | 248 kts | 101° |
| 2025-10-04 06:57 | 53.70691 | 49.56918 | 8241 ft | 233 kts | 101° |
| 2025-10-04 06:58 | 53.70454 | 49.59607 | 7869 ft | 230 kts | 101° |
| 2025-10-04 06:58 | 53.69985 | 49.64906 | 7076 ft | 225 kts | 101° |
| 2025-10-04 06:59 | 53.69306 | 49.72552 | 6044 ft | 207 kts | 101° |
| 2025-10-04 06:59 | 53.68886 | 49.77235 | 5513 ft | 198 kts | 102° |
| 2025-10-04 07:00 | 53.68479 | 49.81751 | 4987 ft | 194 kts | 102° |
| 2025-10-04 07:00 | 53.68092 | 49.86069 | 4624 ft | 177 kts | 102° |
| 2025-10-04 07:01 | 53.67724 | 49.90125 | 4309 ft | 173 kts | 102° |
| 2025-10-04 07:01 | 53.67699 | 49.94161 | 4003 ft | 164 kts | 95° |
| 2025-10-04 07:02 | 53.67682 | 49.97888 | 3705 ft | 158 kts | 94° |
| 2025-10-04 07:03 | 53.67665 | 50.03424 | 3272 ft | 156 kts | 95° |
| 2025-10-04 07:03 | 53.67661 | 50.05246 | 3121 ft | 153 kts | 94° |
| 2025-10-04 07:03 | 53.66612 | 50.08045 | 2791 ft | 152 kts | 153° |
| 2025-10-04 07:04 | 53.64611 | 50.09195 | 2692 ft | 149 kts | 161° |
| 2025-10-04 07:04 | 53.62653 | 50.10438 | 2560 ft | 152 kts | 156° |
| 2025-10-04 07:05 | 53.60682 | 50.11522 | 2128 ft | 146 kts | 161° |
| 2025-10-04 07:05 | 53.58795 | 50.12708 | 1769 ft | 145 kts | 158° |
| 2025-10-04 07:06 | 53.56871 | 50.13843 | 1406 ft | 149 kts | 160° |
| 2025-10-04 07:06 | 53.54941 | 50.14986 | 1056 ft | 145 kts | 159° |
| 2025-10-04 07:07 | 53.53065 | 50.16122 | 667 ft | 142 kts | 159° |
| 2025-10-04 07:07 | 53.51263 | 50.17195 | 457 ft | 132 kts | 160° |
| 2025-10-04 07:08 | 53.49641 | 50.18169 | 451 ft | 48 kts | 159° |
| 2025-10-04 07:09 | 53.49299 | 50.18233 | 452 ft | 16 kts | 244° |
| 2025-10-04 07:09 | 53.49283 | 50.18038 | 453 ft | 17 kts | 286° |
| 2025-10-04 07:09 | 53.49496 | 50.17833 | 453 ft | 22 kts | 343° |
| 2025-10-04 07:10 | 53.49854 | 50.17618 | 453 ft | 32 kts | 340° |
| 2025-10-04 07:10 | 53.50275 | 50.17364 | 453 ft | 32 kts | 341° |
| 2025-10-04 07:11 | 53.50661 | 50.17134 | 453 ft | 27 kts | 340° |
| 2025-10-04 07:11 | 53.50907 | 50.16866 | 453 ft | 18 kts | 296° |
| 2025-10-04 07:12 | 53.51040 | 50.16491 | 453 ft | 19 kts | 302° |
| 2025-10-04 07:13 | 53.51160 | 50.16074 | 453 ft | 2 kts | 316° |
| 2025-10-04 07:13 | 53.51194 | 50.16039 | 453 ft | 7 kts | 330° |
| 2025-10-04 07:13 | 53.51212 | 50.16022 | 453 ft | 0 kts | 331° |